sensor_id;sensor_type;location;lat;lon;timestamp;temperature;humidity
69715;HTU21D;56981;53.532;49.398;2022-12-18T00:01:17;-0.15;85.10
69715;HTU21D;56981;53.532;49.398;2022-12-18T00:03:44;-0.17;85.53
69715;HTU21D;56981;53.532;49.398;2022-12-18T00:06:11;-0.19;85.81
69715;HTU21D;56981;53.532;49.398;2022-12-18T00:08:37;-0.25;85.84
69715;HTU21D;56981;53.532;49.398;2022-12-18T00:11:05;-0.34;86.57
69715;HTU21D;56981;53.532;49.398;2022-12-18T00:13:31;-0.38;86.94
69715;HTU21D;56981;53.532;49.398;2022-12-18T00:16:06;-0.44;88.08
69715;HTU21D;56981;53.532;49.398;2022-12-18T00:18:33;-0.43;88.19
69715;HTU21D;56981;53.532;49.398;2022-12-18T00:21:04;-0.41;88.71
69715;HTU21D;56981;53.532;49.398;2022-12-18T00:23:31;-0.32;88.35
69715;HTU21D;56981;53.532;49.398;2022-12-18T00:26:03;-0.32;88.00
69715;HTU21D;56981;53.532;49.398;2022-12-18T00:28:30;-0.22;87.90
69715;HTU21D;56981;53.532;49.398;2022-12-18T00:31:03;-0.19;87.64
69715;HTU21D;56981;53.532;49.398;2022-12-18T00:33:30;-0.15;87.58
69715;HTU21D;56981;53.532;49.398;2022-12-18T00:36:07;-0.20;86.70
69715;HTU21D;56981;53.532;49.398;2022-12-18T00:38:34;-0.19;86.61
69715;HTU21D;56981;53.532;49.398;2022-12-18T00:41:02;-0.27;86.45
69715;HTU21D;56981;53.532;49.398;2022-12-18T00:43:28;-0.27;86.09
69715;HTU21D;56981;53.532;49.398;2022-12-18T00:45:55;-0.27;86.34
69715;HTU21D;56981;53.532;49.398;2022-12-18T00:48:21;-0.27;86.48
69715;HTU21D;56981;53.532;49.398;2022-12-18T00:50:48;-0.23;85.80
69715;HTU21D;56981;53.532;49.398;2022-12-18T00:53:15;-0.21;85.64
69715;HTU21D;56981;53.532;49.398;2022-12-18T00:55:41;-0.23;85.26
69715;HTU21D;56981;53.532;49.398;2022-12-18T00:58:09;-0.27;85.95
69715;HTU21D;56981;53.532;49.398;2022-12-18T01:00:35;-0.22;86.29
69715;HTU21D;56981;53.532;49.398;2022-12-18T01:03:02;-0.25;86.61
69715;HTU21D;56981;53.532;49.398;2022-12-18T01:05:28;-0.26;86.60
69715;HTU21D;56981;53.532;49.398;2022-12-18T01:07:55;-0.22;87.29
69715;HTU21D;56981;53.532;49.398;2022-12-18T01:10:23;-0.16;87.92
69715;HTU21D;56981;53.532;49.398;2022-12-18T01:12:49;-0.23;88.45
69715;HTU21D;56981;53.532;49.398;2022-12-18T01:15:16;-0.21;88.44
69715;HTU21D;56981;53.532;49.398;2022-12-18T01:17:43;-0.22;88.33
69715;HTU21D;56981;53.532;49.398;2022-12-18T01:20:10;-0.17;88.89
69715;HTU21D;56981;53.532;49.398;2022-12-18T01:22:37;-0.12;88.86
69715;HTU21D;56981;53.532;49.398;2022-12-18T01:25:03;-0.11;89.20
69715;HTU21D;56981;53.532;49.398;2022-12-18T01:27:30;-0.13;89.13
69715;HTU21D;56981;53.532;49.398;2022-12-18T01:29:56;-0.10;89.54
69715;HTU21D;56981;53.532;49.398;2022-12-18T01:32:22;-0.03;89.21
69715;HTU21D;56981;53.532;49.398;2022-12-18T01:34:48;-0.01;89.30
69715;HTU21D;56981;53.532;49.398;2022-12-18T01:37:14;0.01;89.12
69715;HTU21D;56981;53.532;49.398;2022-12-18T01:39:41;0.03;89.05
69715;HTU21D;56981;53.532;49.398;2022-12-18T01:42:14;-0.00;89.35
69715;HTU21D;56981;53.532;49.398;2022-12-18T01:47:48;-0.07;89.09
69715;HTU21D;56981;53.532;49.398;2022-12-18T01:50:22;-0.03;89.54
69715;HTU21D;56981;53.532;49.398;2022-12-18T01:52:55;-0.09;89.40
69715;HTU21D;56981;53.532;49.398;2022-12-18T01:55:25;-0.05;89.39
69715;HTU21D;56981;53.532;49.398;2022-12-18T01:57:54;-0.10;90.05
69715;HTU21D;56981;53.532;49.398;2022-12-18T02:00:21;-0.13;89.83
69715;HTU21D;56981;53.532;49.398;2022-12-18T02:02:48;-0.11;89.72
69715;HTU21D;56981;53.532;49.398;2022-12-18T02:05:17;-0.06;89.25
69715;HTU21D;56981;53.532;49.398;2022-12-18T02:10:53;-0.09;89.47
69715;HTU21D;56981;53.532;49.398;2022-12-18T02:27:40;-0.14;88.17
69715;HTU21D;56981;53.532;49.398;2022-12-18T02:30:08;-0.12;88.80
69715;HTU21D;56981;53.532;49.398;2022-12-18T02:32:38;-0.17;88.54
69715;HTU21D;56981;53.532;49.398;2022-12-18T02:35:13;-0.20;88.01
69715;HTU21D;56981;53.532;49.398;2022-12-18T02:37:42;-0.26;88.72
69715;HTU21D;56981;53.532;49.398;2022-12-18T02:40:11;-0.30;88.68
69715;HTU21D;56981;53.532;49.398;2022-12-18T02:42:37;-0.28;88.60
69715;HTU21D;56981;53.532;49.398;2022-12-18T02:45:04;-0.31;88.69
69715;HTU21D;56981;53.532;49.398;2022-12-18T02:47:39;-0.29;88.63
69715;HTU21D;56981;53.532;49.398;2022-12-18T02:50:29;-0.26;89.34
69715;HTU21D;56981;53.532;49.398;2022-12-18T02:53:19;-0.23;89.27
69715;HTU21D;56981;53.532;49.398;2022-12-18T02:55:54;-0.24;89.41
69715;HTU21D;56981;53.532;49.398;2022-12-18T03:01:01;-0.20;90.32
69715;HTU21D;56981;53.532;49.398;2022-12-18T03:03:33;-0.15;90.60
69715;HTU21D;56981;53.532;49.398;2022-12-18T03:06:08;-0.11;90.83
69715;HTU21D;56981;53.532;49.398;2022-12-18T03:08:39;-0.05;91.03
69715;HTU21D;56981;53.532;49.398;2022-12-18T03:11:11;0.02;90.62
69715;HTU21D;56981;53.532;49.398;2022-12-18T03:13:50;0.04;90.32
69715;HTU21D;56981;53.532;49.398;2022-12-18T03:16:27;0.04;90.69
69715;HTU21D;56981;53.532;49.398;2022-12-18T03:19:18;0.09;90.38
69715;HTU21D;56981;53.532;49.398;2022-12-18T03:21:49;0.17;90.28
69715;HTU21D;56981;53.532;49.398;2022-12-18T03:24:17;0.16;90.47
69715;HTU21D;56981;53.532;49.398;2022-12-18T03:26:46;0.19;90.68
69715;HTU21D;56981;53.532;49.398;2022-12-18T03:29:22;0.22;91.47
69715;HTU21D;56981;53.532;49.398;2022-12-18T03:31:57;0.28;91.91
69715;HTU21D;56981;53.532;49.398;2022-12-18T03:34:32;0.30;91.72
69715;HTU21D;56981;53.532;49.398;2022-12-18T03:36:59;0.32;92.54
69715;HTU21D;56981;53.532;49.398;2022-12-18T03:39:29;0.34;92.36
69715;HTU21D;56981;53.532;49.398;2022-12-18T03:42:15;0.39;92.70
69715;HTU21D;56981;53.532;49.398;2022-12-18T03:47:41;0.42;92.96
69715;HTU21D;56981;53.532;49.398;2022-12-18T03:50:22;0.45;92.88
69715;HTU21D;56981;53.532;49.398;2022-12-18T03:53:00;0.48;92.77
69715;HTU21D;56981;53.532;49.398;2022-12-18T03:55:31;0.58;93.25
69715;HTU21D;56981;53.532;49.398;2022-12-18T03:57:59;0.65;93.54
69715;HTU21D;56981;53.532;49.398;2022-12-18T04:00:28;0.72;93.26
69715;HTU21D;56981;53.532;49.398;2022-12-18T04:02:56;0.76;93.21
69715;HTU21D;56981;53.532;49.398;2022-12-18T04:05:24;0.81;93.07
69715;HTU21D;56981;53.532;49.398;2022-12-18T04:07:51;0.86;93.33
69715;HTU21D;56981;53.532;49.398;2022-12-18T04:10:19;0.92;93.49
69715;HTU21D;56981;53.532;49.398;2022-12-18T04:12:45;0.94;93.49
69715;HTU21D;56981;53.532;49.398;2022-12-18T04:15:12;1.01;93.08
69715;HTU21D;56981;53.532;49.398;2022-12-18T04:17:42;1.04;92.63
69715;HTU21D;56981;53.532;49.398;2022-12-18T04:20:09;1.06;92.40
69715;HTU21D;56981;53.532;49.398;2022-12-18T04:22:36;1.09;92.53
69715;HTU21D;56981;53.532;49.398;2022-12-18T04:25:03;1.13;92.65
69715;HTU21D;56981;53.532;49.398;2022-12-18T04:27:29;1.18;92.95
69715;HTU21D;56981;53.532;49.398;2022-12-18T04:29:55;1.23;92.63
69715;HTU21D;56981;53.532;49.398;2022-12-18T04:32:21;1.24;92.40
69715;HTU21D;56981;53.532;49.398;2022-12-18T04:34:47;1.24;92.32
69715;HTU21D;56981;53.532;49.398;2022-12-18T04:37:13;1.24;92.45
69715;HTU21D;56981;53.532;49.398;2022-12-18T04:39:40;1.31;92.53
69715;HTU21D;56981;53.532;49.398;2022-12-18T04:42:06;1.32;92.13
69715;HTU21D;56981;53.532;49.398;2022-12-18T04:44:32;1.31;91.76
69715;HTU21D;56981;53.532;49.398;2022-12-18T04:46:58;1.33;92.21
69715;HTU21D;56981;53.532;49.398;2022-12-18T04:49:24;1.35;91.70
69715;HTU21D;56981;53.532;49.398;2022-12-18T04:51:50;1.35;91.56
69715;HTU21D;56981;53.532;49.398;2022-12-18T04:54:17;1.33;91.72
69715;HTU21D;56981;53.532;49.398;2022-12-18T04:56:45;1.32;91.82
69715;HTU21D;56981;53.532;49.398;2022-12-18T04:59:12;1.31;91.74
69715;HTU21D;56981;53.532;49.398;2022-12-18T05:01:38;1.33;91.95
69715;HTU21D;56981;53.532;49.398;2022-12-18T05:04:04;1.37;92.11
69715;HTU21D;56981;53.532;49.398;2022-12-18T05:06:32;1.37;92.28
69715;HTU21D;56981;53.532;49.398;2022-12-18T05:08:59;1.38;92.62
69715;HTU21D;56981;53.532;49.398;2022-12-18T05:11:25;1.36;92.14
69715;HTU21D;56981;53.532;49.398;2022-12-18T05:13:51;1.32;92.23
69715;HTU21D;56981;53.532;49.398;2022-12-18T05:16:17;1.34;93.05
69715;HTU21D;56981;53.532;49.398;2022-12-18T05:18:43;1.36;93.53
69715;HTU21D;56981;53.532;49.398;2022-12-18T05:21:10;1.36;93.51
69715;HTU21D;56981;53.532;49.398;2022-12-18T05:23:36;1.38;94.22
69715;HTU21D;56981;53.532;49.398;2022-12-18T05:26:04;1.41;93.76
69715;HTU21D;56981;53.532;49.398;2022-12-18T05:28:35;1.45;93.43
69715;HTU21D;56981;53.532;49.398;2022-12-18T05:31:03;1.45;92.97
69715;HTU21D;56981;53.532;49.398;2022-12-18T05:33:32;1.43;92.88
69715;HTU21D;56981;53.532;49.398;2022-12-18T05:36:03;1.47;93.27
69715;HTU21D;56981;53.532;49.398;2022-12-18T05:38:31;1.47;92.35
69715;HTU21D;56981;53.532;49.398;2022-12-18T05:40:58;1.47;92.53
69715;HTU21D;56981;53.532;49.398;2022-12-18T05:43:26;1.48;92.79
69715;HTU21D;56981;53.532;49.398;2022-12-18T05:45:53;1.46;92.92
69715;HTU21D;56981;53.532;49.398;2022-12-18T05:48:22;1.41;92.68
69715;HTU21D;56981;53.532;49.398;2022-12-18T05:50:49;1.41;92.60
69715;HTU21D;56981;53.532;49.398;2022-12-18T05:53:19;1.47;92.69
69715;HTU21D;56981;53.532;49.398;2022-12-18T05:55:46;1.49;92.47
69715;HTU21D;56981;53.532;49.398;2022-12-18T05:58:16;1.48;92.40
69715;HTU21D;56981;53.532;49.398;2022-12-18T06:00:48;1.53;92.73
69715;HTU21D;56981;53.532;49.398;2022-12-18T06:03:15;1.56;92.37
69715;HTU21D;56981;53.532;49.398;2022-12-18T06:05:45;1.54;92.02
69715;HTU21D;56981;53.532;49.398;2022-12-18T06:08:12;1.55;91.81
69715;HTU21D;56981;53.532;49.398;2022-12-18T06:10:39;1.54;91.66
69715;HTU21D;56981;53.532;49.398;2022-12-18T06:13:06;1.52;91.33
69715;HTU21D;56981;53.532;49.398;2022-12-18T06:15:45;1.43;91.41
69715;HTU21D;56981;53.532;49.398;2022-12-18T06:18:15;1.43;91.54
69715;HTU21D;56981;53.532;49.398;2022-12-18T06:20:41;1.42;91.45
69715;HTU21D;56981;53.532;49.398;2022-12-18T06:23:07;1.38;91.47
69715;HTU21D;56981;53.532;49.398;2022-12-18T06:25:38;1.35;91.17
69715;HTU21D;56981;53.532;49.398;2022-12-18T06:28:04;1.34;90.99
69715;HTU21D;56981;53.532;49.398;2022-12-18T06:30:30;1.32;90.68
69715;HTU21D;56981;53.532;49.398;2022-12-18T06:32:57;1.24;90.46
69715;HTU21D;56981;53.532;49.398;2022-12-18T06:35:23;1.21;90.45
69715;HTU21D;56981;53.532;49.398;2022-12-18T06:37:49;1.16;90.88
69715;HTU21D;56981;53.532;49.398;2022-12-18T06:40:15;1.13;91.50
69715;HTU21D;56981;53.532;49.398;2022-12-18T06:42:47;1.10;90.82
69715;HTU21D;56981;53.532;49.398;2022-12-18T06:45:15;1.08;90.67
69715;HTU21D;56981;53.532;49.398;2022-12-18T06:47:41;1.08;90.66
69715;HTU21D;56981;53.532;49.398;2022-12-18T06:50:07;1.11;91.12
69715;HTU21D;56981;53.532;49.398;2022-12-18T06:52:45;1.14;90.49
69715;HTU21D;56981;53.532;49.398;2022-12-18T06:55:14;1.14;90.66
69715;HTU21D;56981;53.532;49.398;2022-12-18T06:57:40;1.16;90.07
69715;HTU21D;56981;53.532;49.398;2022-12-18T07:00:07;1.11;89.80
69715;HTU21D;56981;53.532;49.398;2022-12-18T07:02:36;1.11;90.02
69715;HTU21D;56981;53.532;49.398;2022-12-18T07:05:06;1.13;89.65
69715;HTU21D;56981;53.532;49.398;2022-12-18T07:07:34;1.08;89.47
69715;HTU21D;56981;53.532;49.398;2022-12-18T07:10:01;1.08;89.47
69715;HTU21D;56981;53.532;49.398;2022-12-18T07:12:27;1.06;89.21
69715;HTU21D;56981;53.532;49.398;2022-12-18T07:14:53;1.11;89.62
69715;HTU21D;56981;53.532;49.398;2022-12-18T07:17:19;1.12;89.44
69715;HTU21D;56981;53.532;49.398;2022-12-18T07:19:46;1.16;89.47
69715;HTU21D;56981;53.532;49.398;2022-12-18T07:22:15;1.12;88.81
69715;HTU21D;56981;53.532;49.398;2022-12-18T07:24:41;1.11;88.95
69715;HTU21D;56981;53.532;49.398;2022-12-18T07:27:09;1.09;88.73
69715;HTU21D;56981;53.532;49.398;2022-12-18T07:29:36;1.11;89.15
69715;HTU21D;56981;53.532;49.398;2022-12-18T07:32:02;1.14;88.66
69715;HTU21D;56981;53.532;49.398;2022-12-18T07:34:28;1.09;88.63
69715;HTU21D;56981;53.532;49.398;2022-12-18T07:36:55;1.05;88.77
69715;HTU21D;56981;53.532;49.398;2022-12-18T07:39:21;1.07;88.77
69715;HTU21D;56981;53.532;49.398;2022-12-18T07:41:52;1.03;88.67
69715;HTU21D;56981;53.532;49.398;2022-12-18T07:44:39;1.05;89.13
69715;HTU21D;56981;53.532;49.398;2022-12-18T07:47:07;1.07;88.75
69715;HTU21D;56981;53.532;49.398;2022-12-18T07:49:33;1.07;88.73
69715;HTU21D;56981;53.532;49.398;2022-12-18T07:51:59;1.06;89.02
69715;HTU21D;56981;53.532;49.398;2022-12-18T07:54:26;1.01;89.15
69715;HTU21D;56981;53.532;49.398;2022-12-18T07:56:55;0.97;89.18
69715;HTU21D;56981;53.532;49.398;2022-12-18T07:59:21;0.99;89.67
69715;HTU21D;56981;53.532;49.398;2022-12-18T08:01:47;0.99;89.23
69715;HTU21D;56981;53.532;49.398;2022-12-18T08:04:13;1.02;89.34
69715;HTU21D;56981;53.532;49.398;2022-12-18T08:06:39;1.07;89.66
69715;HTU21D;56981;53.532;49.398;2022-12-18T08:09:05;1.08;89.76
69715;HTU21D;56981;53.532;49.398;2022-12-18T08:11:32;1.10;89.50
69715;HTU21D;56981;53.532;49.398;2022-12-18T08:13:58;1.14;89.66
69715;HTU21D;56981;53.532;49.398;2022-12-18T08:16:24;1.17;89.72
69715;HTU21D;56981;53.532;49.398;2022-12-18T08:18:55;1.17;89.70
69715;HTU21D;56981;53.532;49.398;2022-12-18T08:21:25;1.16;90.42
69715;HTU21D;56981;53.532;49.398;2022-12-18T08:23:53;1.12;91.60
69715;HTU21D;56981;53.532;49.398;2022-12-18T08:26:20;1.16;91.78
69715;HTU21D;56981;53.532;49.398;2022-12-18T08:28:48;1.18;91.66
69715;HTU21D;56981;53.532;49.398;2022-12-18T08:31:14;1.17;91.73
69715;HTU21D;56981;53.532;49.398;2022-12-18T08:33:40;1.23;91.57
69715;HTU21D;56981;53.532;49.398;2022-12-18T08:36:08;1.25;91.65
69715;HTU21D;56981;53.532;49.398;2022-12-18T08:38:35;1.26;92.21
69715;HTU21D;56981;53.532;49.398;2022-12-18T08:41:07;1.28;92.24
69715;HTU21D;56981;53.532;49.398;2022-12-18T08:43:34;1.26;92.19
69715;HTU21D;56981;53.532;49.398;2022-12-18T08:46:32;1.23;92.34
69715;HTU21D;56981;53.532;49.398;2022-12-18T08:48:58;1.22;92.73
69715;HTU21D;56981;53.532;49.398;2022-12-18T08:51:24;1.23;92.84
69715;HTU21D;56981;53.532;49.398;2022-12-18T08:53:50;1.26;92.98
69715;HTU21D;56981;53.532;49.398;2022-12-18T08:56:20;1.26;93.14
69715;HTU21D;56981;53.532;49.398;2022-12-18T08:58:46;1.26;93.41
69715;HTU21D;56981;53.532;49.398;2022-12-18T09:01:16;1.28;93.33
69715;HTU21D;56981;53.532;49.398;2022-12-18T09:03:43;1.29;93.33
69715;HTU21D;56981;53.532;49.398;2022-12-18T09:06:17;1.28;93.14
69715;HTU21D;56981;53.532;49.398;2022-12-18T09:08:43;1.32;93.26
69715;HTU21D;56981;53.532;49.398;2022-12-18T09:11:22;1.33;93.56
69715;HTU21D;56981;53.532;49.398;2022-12-18T09:13:49;1.37;93.39
69715;HTU21D;56981;53.532;49.398;2022-12-18T09:16:18;1.39;93.56
69715;HTU21D;56981;53.532;49.398;2022-12-18T09:18:46;1.43;93.15
69715;HTU21D;56981;53.532;49.398;2022-12-18T09:21:17;1.42;93.04
69715;HTU21D;56981;53.532;49.398;2022-12-18T09:23:52;1.43;92.97
69715;HTU21D;56981;53.532;49.398;2022-12-18T09:26:19;1.43;92.85
69715;HTU21D;56981;53.532;49.398;2022-12-18T09:28:46;1.46;92.80
69715;HTU21D;56981;53.532;49.398;2022-12-18T09:31:17;1.47;93.01
69715;HTU21D;56981;53.532;49.398;2022-12-18T09:33:55;1.51;92.71
69715;HTU21D;56981;53.532;49.398;2022-12-18T09:36:23;1.52;92.58
69715;HTU21D;56981;53.532;49.398;2022-12-18T09:38:49;1.53;92.56
69715;HTU21D;56981;53.532;49.398;2022-12-18T09:43:59;1.55;92.34
69715;HTU21D;56981;53.532;49.398;2022-12-18T09:46:33;1.55;92.41
69715;HTU21D;56981;53.532;49.398;2022-12-18T09:49:12;1.55;92.43
69715;HTU21D;56981;53.532;49.398;2022-12-18T09:52:02;1.55;92.66
69715;HTU21D;56981;53.532;49.398;2022-12-18T09:54:39;1.56;92.82
69715;HTU21D;56981;53.532;49.398;2022-12-18T09:57:18;1.60;92.75
69715;HTU21D;56981;53.532;49.398;2022-12-18T09:59:49;1.61;92.74
69715;HTU21D;56981;53.532;49.398;2022-12-18T10:02:23;1.64;92.64
69715;HTU21D;56981;53.532;49.398;2022-12-18T10:05:09;1.66;92.60
69715;HTU21D;56981;53.532;49.398;2022-12-18T10:10:18;1.71;92.30
69715;HTU21D;56981;53.532;49.398;2022-12-18T10:13:41;1.71;92.37
69715;HTU21D;56981;53.532;49.398;2022-12-18T10:16:09;1.69;92.88
69715;HTU21D;56981;53.532;49.398;2022-12-18T10:21:17;1.75;92.72
69715;HTU21D;56981;53.532;49.398;2022-12-18T10:23:54;1.79;92.54
69715;HTU21D;56981;53.532;49.398;2022-12-18T10:26:24;1.81;92.58
69715;HTU21D;56981;53.532;49.398;2022-12-18T10:28:51;1.82;92.32
69715;HTU21D;56981;53.532;49.398;2022-12-18T10:31:22;1.86;92.62
69715;HTU21D;56981;53.532;49.398;2022-12-18T10:33:49;1.85;92.17
69715;HTU21D;56981;53.532;49.398;2022-12-18T10:36:15;1.86;92.04
69715;HTU21D;56981;53.532;49.398;2022-12-18T10:38:41;1.85;92.14
69715;HTU21D;56981;53.532;49.398;2022-12-18T10:44:18;1.85;92.18
69715;HTU21D;56981;53.532;49.398;2022-12-18T10:46:48;1.86;92.03
69715;HTU21D;56981;53.532;49.398;2022-12-18T10:49:26;1.91;91.98
69715;HTU21D;56981;53.532;49.398;2022-12-18T10:52:25;1.93;91.71
69715;HTU21D;56981;53.532;49.398;2022-12-18T10:54:53;1.95;91.69
69715;HTU21D;56981;53.532;49.398;2022-12-18T10:57:34;1.94;91.82
69715;HTU21D;56981;53.532;49.398;2022-12-18T11:02:47;1.94;91.98
69715;HTU21D;56981;53.532;49.398;2022-12-18T11:05:30;1.93;92.19
69715;HTU21D;56981;53.532;49.398;2022-12-18T11:07:57;1.96;92.06
69715;HTU21D;56981;53.532;49.398;2022-12-18T11:10:35;1.94;91.82
69715;HTU21D;56981;53.532;49.398;2022-12-18T11:13:31;1.94;92.01
69715;HTU21D;56981;53.532;49.398;2022-12-18T11:15:58;1.97;91.92
69715;HTU21D;56981;53.532;49.398;2022-12-18T11:18:30;1.97;91.92
69715;HTU21D;56981;53.532;49.398;2022-12-18T11:21:09;1.95;91.69
69715;HTU21D;56981;53.532;49.398;2022-12-18T11:23:46;1.96;92.03
69715;HTU21D;56981;53.532;49.398;2022-12-18T11:26:13;1.98;91.88
69715;HTU21D;56981;53.532;49.398;2022-12-18T11:28:49;2.00;91.94
69715;HTU21D;56981;53.532;49.398;2022-12-18T11:31:27;2.01;92.06
69715;HTU21D;56981;53.532;49.398;2022-12-18T11:36:55;2.05;92.08
69715;HTU21D;56981;53.532;49.398;2022-12-18T11:39:40;2.06;91.90
69715;HTU21D;56981;53.532;49.398;2022-12-18T11:42:55;2.08;92.34
69715;HTU21D;56981;53.532;49.398;2022-12-18T11:45:29;2.09;92.13
69715;HTU21D;56981;53.532;49.398;2022-12-18T11:48:09;2.07;92.21
69715;HTU21D;56981;53.532;49.398;2022-12-18T11:50:51;2.08;92.56
69715;HTU21D;56981;53.532;49.398;2022-12-18T11:53:19;2.08;92.34
69715;HTU21D;56981;53.532;49.398;2022-12-18T11:58:49;2.03;92.26
69715;HTU21D;56981;53.532;49.398;2022-12-18T12:14:49;2.01;92.41
69715;HTU21D;56981;53.532;49.398;2022-12-18T12:17:25;2.02;92.52
69715;HTU21D;56981;53.532;49.398;2022-12-18T12:20:06;2.05;92.52
69715;HTU21D;56981;53.532;49.398;2022-12-18T12:23:29;2.01;92.55
69715;HTU21D;56981;53.532;49.398;2022-12-18T12:26:21;1.98;92.82
69715;HTU21D;56981;53.532;49.398;2022-12-18T12:35:32;1.97;93.06
69715;HTU21D;56981;53.532;49.398;2022-12-18T12:38:09;2.00;92.78
69715;HTU21D;56981;53.532;49.398;2022-12-18T12:40:42;2.01;92.73
69715;HTU21D;56981;53.532;49.398;2022-12-18T12:46:04;1.99;92.94
69715;HTU21D;56981;53.532;49.398;2022-12-18T12:53:42;2.03;92.81
69715;HTU21D;56981;53.532;49.398;2022-12-18T12:56:14;2.07;92.72
69715;HTU21D;56981;53.532;49.398;2022-12-18T13:01:32;2.13;92.87
69715;HTU21D;56981;53.532;49.398;2022-12-18T13:07:22;2.08;93.44
69715;HTU21D;56981;53.532;49.398;2022-12-18T13:15:41;2.07;94.69
69715;HTU21D;56981;53.532;49.398;2022-12-18T13:21:11;2.03;94.98
69715;HTU21D;56981;53.532;49.398;2022-12-18T13:23:38;2.05;94.85
69715;HTU21D;56981;53.532;49.398;2022-12-18T13:28:52;2.09;94.51
69715;HTU21D;56981;53.532;49.398;2022-12-18T13:36:48;2.14;94.08
69715;HTU21D;56981;53.532;49.398;2022-12-18T13:41:44;2.19;94.03
69715;HTU21D;56981;53.532;49.398;2022-12-18T13:44:12;2.19;93.75
69715;HTU21D;56981;53.532;49.398;2022-12-18T13:46:46;2.19;94.04
69715;HTU21D;56981;53.532;49.398;2022-12-18T13:51:57;2.23;94.24
69715;HTU21D;56981;53.532;49.398;2022-12-18T13:54:45;2.26;94.09
69715;HTU21D;56981;53.532;49.398;2022-12-18T13:57:33;2.26;94.19
69715;HTU21D;56981;53.532;49.398;2022-12-18T14:00:25;2.26;94.17
69715;HTU21D;56981;53.532;49.398;2022-12-18T14:02:53;2.27;94.10
69715;HTU21D;56981;53.532;49.398;2022-12-18T14:05:36;2.26;94.10
69715;HTU21D;56981;53.532;49.398;2022-12-18T14:08:10;2.28;94.17
69715;HTU21D;56981;53.532;49.398;2022-12-18T14:10:41;2.29;94.21
69715;HTU21D;56981;53.532;49.398;2022-12-18T14:13:17;2.30;94.14
69715;HTU21D;56981;53.532;49.398;2022-12-18T14:15:47;2.30;94.15
69715;HTU21D;56981;53.532;49.398;2022-12-18T14:18:21;2.30;94.11
69715;HTU21D;56981;53.532;49.398;2022-12-18T14:20:52;2.29;94.06
69715;HTU21D;56981;53.532;49.398;2022-12-18T14:25:56;2.30;94.52
69715;HTU21D;56981;53.532;49.398;2022-12-18T14:28:24;2.30;94.26
69715;HTU21D;56981;53.532;49.398;2022-12-18T14:30:55;2.29;94.42
69715;HTU21D;56981;53.532;49.398;2022-12-18T14:33:26;2.28;94.54
69715;HTU21D;56981;53.532;49.398;2022-12-18T14:35:59;2.30;94.43
69715;HTU21D;56981;53.532;49.398;2022-12-18T14:38:29;2.30;94.40
69715;HTU21D;56981;53.532;49.398;2022-12-18T14:41:13;2.29;94.29
69715;HTU21D;56981;53.532;49.398;2022-12-18T14:43:45;2.31;94.47
69715;HTU21D;56981;53.532;49.398;2022-12-18T14:46:32;2.31;94.59
69715;HTU21D;56981;53.532;49.398;2022-12-18T14:49:33;2.29;94.70
69715;HTU21D;56981;53.532;49.398;2022-12-18T14:52:02;2.28;95.26
69715;HTU21D;56981;53.532;49.398;2022-12-18T14:57:41;2.32;95.16
69715;HTU21D;56981;53.532;49.398;2022-12-18T15:00:18;2.35;94.92
69715;HTU21D;56981;53.532;49.398;2022-12-18T15:02:52;2.36;94.62
69715;HTU21D;56981;53.532;49.398;2022-12-18T15:05:33;2.34;94.48
69715;HTU21D;56981;53.532;49.398;2022-12-18T15:08:37;2.34;94.64
69715;HTU21D;56981;53.532;49.398;2022-12-18T15:11:32;2.36;94.59
69715;HTU21D;56981;53.532;49.398;2022-12-18T15:14:22;2.37;94.49
69715;HTU21D;56981;53.532;49.398;2022-12-18T15:16:53;2.37;94.43
69715;HTU21D;56981;53.532;49.398;2022-12-18T15:19:22;2.40;94.10
69715;HTU21D;56981;53.532;49.398;2022-12-18T15:21:51;2.45;94.03
69715;HTU21D;56981;53.532;49.398;2022-12-18T15:24:43;2.43;93.77
69715;HTU21D;56981;53.532;49.398;2022-12-18T15:30:01;2.42;94.26
69715;HTU21D;56981;53.532;49.398;2022-12-18T15:33:15;2.42;93.89
69715;HTU21D;56981;53.532;49.398;2022-12-18T15:35:25;2.41;94.09
69715;HTU21D;56981;53.532;49.398;2022-12-18T15:37:51;2.43;94.03
69715;HTU21D;56981;53.532;49.398;2022-12-18T15:40:21;2.49;93.81
69715;HTU21D;56981;53.532;49.398;2022-12-18T15:42:48;2.47;93.51
69715;HTU21D;56981;53.532;49.398;2022-12-18T15:45:33;2.51;93.70
69715;HTU21D;56981;53.532;49.398;2022-12-18T15:47:59;2.52;93.46
69715;HTU21D;56981;53.532;49.398;2022-12-18T15:50:28;2.55;93.14
69715;HTU21D;56981;53.532;49.398;2022-12-18T15:52:55;2.58;92.97
69715;HTU21D;56981;53.532;49.398;2022-12-18T15:55:25;2.60;92.85
69715;HTU21D;56981;53.532;49.398;2022-12-18T15:58:10;2.62;92.84
69715;HTU21D;56981;53.532;49.398;2022-12-18T16:00:38;2.62;92.66
69715;HTU21D;56981;53.532;49.398;2022-12-18T16:03:05;2.64;92.76
69715;HTU21D;56981;53.532;49.398;2022-12-18T16:05:32;2.65;93.01
69715;HTU21D;56981;53.532;49.398;2022-12-18T16:08:04;2.64;92.87
69715;HTU21D;56981;53.532;49.398;2022-12-18T16:10:32;2.61;93.00
69715;HTU21D;56981;53.532;49.398;2022-12-18T16:13:04;2.61;93.14
69715;HTU21D;56981;53.532;49.398;2022-12-18T16:15:36;2.60;93.39
69715;HTU21D;56981;53.532;49.398;2022-12-18T16:18:02;2.58;93.77
69715;HTU21D;56981;53.532;49.398;2022-12-18T16:20:35;2.58;93.89
69715;HTU21D;56981;53.532;49.398;2022-12-18T16:23:01;2.55;93.71
69715;HTU21D;56981;53.532;49.398;2022-12-18T16:25:28;2.54;94.02
69715;HTU21D;56981;53.532;49.398;2022-12-18T16:28:04;2.56;93.88
69715;HTU21D;56981;53.532;49.398;2022-12-18T16:30:31;2.53;94.37
69715;HTU21D;56981;53.532;49.398;2022-12-18T16:33:00;2.55;94.63
69715;HTU21D;56981;53.532;49.398;2022-12-18T16:35:41;2.56;94.50
69715;HTU21D;56981;53.532;49.398;2022-12-18T16:38:19;2.56;94.56
69715;HTU21D;56981;53.532;49.398;2022-12-18T16:40:55;2.54;94.72
69715;HTU21D;56981;53.532;49.398;2022-12-18T16:44:11;2.55;94.77
69715;HTU21D;56981;53.532;49.398;2022-12-18T16:46:58;2.57;94.78
69715;HTU21D;56981;53.532;49.398;2022-12-18T16:49:38;2.56;94.95
69715;HTU21D;56981;53.532;49.398;2022-12-18T16:52:05;2.56;95.11
69715;HTU21D;56981;53.532;49.398;2022-12-18T16:54:34;2.61;95.07
69715;HTU21D;56981;53.532;49.398;2022-12-18T16:57:01;2.62;94.76
69715;HTU21D;56981;53.532;49.398;2022-12-18T16:59:28;2.62;94.80
69715;HTU21D;56981;53.532;49.398;2022-12-18T17:01:55;2.64;94.69
69715;HTU21D;56981;53.532;49.398;2022-12-18T17:04:22;2.59;94.86
69715;HTU21D;56981;53.532;49.398;2022-12-18T17:06:48;2.57;94.95
69715;HTU21D;56981;53.532;49.398;2022-12-18T17:09:18;2.55;95.23
69715;HTU21D;56981;53.532;49.398;2022-12-18T17:11:49;2.58;95.49
69715;HTU21D;56981;53.532;49.398;2022-12-18T17:14:18;2.59;95.45
69715;HTU21D;56981;53.532;49.398;2022-12-18T17:16:46;2.57;95.17
69715;HTU21D;56981;53.532;49.398;2022-12-18T17:19:13;2.56;95.26
69715;HTU21D;56981;53.532;49.398;2022-12-18T17:21:42;2.57;95.47
69715;HTU21D;56981;53.532;49.398;2022-12-18T17:24:09;2.62;95.40
69715;HTU21D;56981;53.532;49.398;2022-12-18T17:26:36;2.59;95.28
69715;HTU21D;56981;53.532;49.398;2022-12-18T17:29:05;2.64;95.32